TimeEDT,TemperatureF,Dew PointF,Humidity,Sea Level PressureIn,VisibilityMPH,Wind Direction,Wind SpeedMPH,Gust SpeedMPH,PrecipitationIn,Events,Conditions,WindDirDegrees,DateUTC
12:53 AM,30.0,24.1,79,29.85,8.0,NW,6.9,-,N/A,,Overcast,320,2013-03-16 04:53:00
1:48 AM,30.2,23.0,75,29.78,8.0,NW,8.1,-,N/A,,Overcast,320,2013-03-16 05:48:00
1:53 AM,30.0,23.0,75,29.83,8.0,NW,5.8,-,N/A,,Overcast,320,2013-03-16 05:53:00
2:53 AM,28.9,19.9,69,29.83,10.0,North,6.9,-,N/A,,Overcast,360,2013-03-16 06:53:00
3:04 AM,28.9,19.9,69,29.77,10.0,North,4.6,-,N/A,,Overcast,10,2013-03-16 07:04:00
3:13 AM,28.9,18.0,64,29.76,10.0,North,5.8,-,N/A,,Overcast,360,2013-03-16 07:13:00
3:53 AM,28.0,18.0,66,29.80,10.0,NNE,3.5,-,N/A,,Overcast,30,2013-03-16 07:53:00
4:53 AM,27.0,17.1,66,29.78,10.0,Calm,Calm,-,N/A,,Overcast,0,2013-03-16 08:53:00
5:53 AM,27.0,16.0,63,29.79,9.0,ENE,3.5,-,0.00,Snow,Light Snow,60,2013-03-16 09:53:00
6:53 AM,26.1,18.0,71,29.79,8.0,East,4.6,-,0.00,,Overcast,100,2013-03-16 10:53:00
7:09 AM,26.1,19.0,75,29.73,2.5,ESE,4.6,-,0.00,Snow,Light Snow,110,2013-03-16 11:09:00
7:16 AM,26.1,19.0,75,29.73,1.8,East,5.8,-,0.00,Snow,Light Snow,100,2013-03-16 11:16:00
7:37 AM,25.0,19.9,81,29.73,0.5,ESE,6.9,-,0.01,Snow,Snow,110,2013-03-16 11:37:00
7:53 AM,25.0,19.9,81,29.80,0.2,East,4.6,-,0.02,Snow,Heavy Snow,100,2013-03-16 11:53:00
8:07 AM,25.0,19.9,81,29.74,0.5,ESE,4.6,-,0.01,Snow,Snow,120,2013-03-16 12:07:00
8:23 AM,25.0,19.9,81,29.74,0.8,ESE,4.6,-,0.01,Snow,Light Snow,120,2013-03-16 12:23:00
8:43 AM,25.0,19.9,81,29.73,1.5,ESE,5.8,-,0.02,Snow,Light Snow,120,2013-03-16 12:43:00
8:46 AM,25.0,19.9,81,29.72,3.0,ESE,5.8,-,0.02,Snow,Light Snow,120,2013-03-16 12:46:00
8:53 AM,25.0,19.9,81,29.79,9.0,SE,4.6,-,0.02,,Overcast,130,2013-03-16 12:53:00
9:19 AM,26.1,19.9,78,29.72,5.0,SE,8.1,-,0.00,Snow,Light Snow,130,2013-03-16 13:19:00
9:53 AM,26.1,19.9,78,29.78,3.0,ESE,8.1,-,0.00,Snow,Light Snow,120,2013-03-16 13:53:00
10:36 AM,27.0,21.0,78,29.69,1.8,SE,8.1,-,0.00,Snow,Light Snow,130,2013-03-16 14:36:00
10:53 AM,27.0,21.9,81,29.75,0.8,East,5.8,-,0.00,Snow,Light Snow,100,2013-03-16 14:53:00
11:00 AM,27.0,21.0,78,29.69,1.2,East,8.1,-,0.00,Snow,Light Snow,80,2013-03-16 15:00:00
11:16 AM,27.0,21.0,78,29.69,3.0,East,6.9,-,0.00,Snow,Light Snow,90,2013-03-16 15:16:00
11:28 AM,28.0,21.0,75,29.69,1.8,East,5.8,-,0.00,Snow,Light Snow,90,2013-03-16 15:28:00
11:40 AM,28.0,21.9,78,29.68,0.8,East,9.2,-,0.01,Snow,Light Snow,100,2013-03-16 15:40:00
11:53 AM,28.0,23.0,81,29.74,1.2,ESE,8.1,-,0.01,Snow,Light Snow,110,2013-03-16 15:53:00
12:12 PM,28.9,23.0,78,29.68,2.5,East,5.8,-,0.00,Snow,Light Snow,100,2013-03-16 16:12:00
12:19 PM,28.9,23.0,78,29.68,5.0,East,8.1,-,0.00,Snow,Light Snow,90,2013-03-16 16:19:00
12:53 PM,30.0,23.0,75,29.73,3.0,ENE,6.9,-,0.00,Snow,Light Snow,60,2013-03-16 16:53:00
1:53 PM,30.0,23.0,75,29.71,7.0,ENE,4.6,-,0.00,,Overcast,70,2013-03-16 17:53:00
2:53 PM,30.0,23.0,75,29.71,7.0,East,8.1,-,0.00,,Overcast,80,2013-03-16 18:53:00
3:53 PM,30.0,23.0,75,29.73,6.0,NE,5.8,-,0.00,,Overcast,40,2013-03-16 19:53:00
4:53 PM,28.9,23.0,78,29.78,6.0,NNW,8.1,-,0.00,,Haze,340,2013-03-16 20:53:00
5:02 PM,28.9,23.0,78,29.72,6.0,North,8.1,-,N/A,,Haze,350,2013-03-16 21:02:00
5:13 PM,28.0,21.9,78,29.72,7.0,North,6.9,-,N/A,,Overcast,350,2013-03-16 21:13:00
5:26 PM,28.9,21.9,75,29.72,5.0,North,6.9,-,N/A,,Haze,10,2013-03-16 21:26:00
5:53 PM,28.0,21.0,75,29.80,4.0,North,9.2,-,N/A,,Haze,360,2013-03-16 21:53:00
6:38 PM,28.0,21.0,75,29.76,9.0,NNE,5.8,-,N/A,,Overcast,20,2013-03-16 22:38:00
6:53 PM,28.0,21.0,75,29.83,10.0,NNE,4.6,-,N/A,,Overcast,20,2013-03-16 22:53:00
7:53 PM,28.0,21.0,75,29.86,10.0,NNW,4.6,-,N/A,,Overcast,340,2013-03-16 23:53:00
8:53 PM,26.1,19.9,78,29.90,10.0,NNW,4.6,-,N/A,,Overcast,330,2013-03-17 00:53:00
9:02 PM,26.1,19.9,78,29.83,10.0,NNW,3.5,-,N/A,,Overcast,330,2013-03-17 01:02:00
9:43 PM,26.1,19.9,78,29.85,10.0,NW,3.5,-,N/A,,Overcast,310,2013-03-17 01:43:00
9:53 PM,27.0,19.9,75,29.92,10.0,West,3.5,-,N/A,,Overcast,280,2013-03-17 01:53:00
10:04 PM,27.0,19.9,75,29.85,10.0,WNW,4.6,-,N/A,,Overcast,300,2013-03-17 02:04:00
10:28 PM,26.1,19.0,75,29.86,10.0,WNW,4.6,-,N/A,,Overcast,290,2013-03-17 02:28:00
10:53 PM,26.1,19.0,75,29.94,10.0,West,5.8,-,N/A,,Overcast,280,2013-03-17 02:53:00
11:53 PM,24.1,18.0,77,29.94,10.0,WNW,5.8,-,N/A,,Overcast,300,2013-03-17 03:53:00